sensor_id;sensor_type;location;lat;lon;timestamp;pressure;altitude;pressure_sealevel;temperature;humidity
6532;BME280;3299;42.004;24.868;2023-02-12T00:01:19;99187.78;;;0.69;47.08
6532;BME280;3299;42.004;24.868;2023-02-12T00:03:45;99189.50;;;0.70;46.98
6532;BME280;3299;42.004;24.868;2023-02-12T00:06:11;99121.53;;;0.23;47.00
6532;BME280;3299;42.004;24.868;2023-02-12T00:08:37;99164.94;;;0.64;46.99
6532;BME280;3299;42.004;24.868;2023-02-12T00:11:12;99185.91;;;0.80;46.90
6532;BME280;3299;42.004;24.868;2023-02-12T00:13:38;99187.44;;;0.88;46.79
6532;BME280;3299;42.004;24.868;2023-02-12T00:16:06;99189.41;;;0.73;47.57
6532;BME280;3299;42.004;24.868;2023-02-12T00:18:32;99185.84;;;0.83;47.18
6532;BME280;3299;42.004;24.868;2023-02-12T00:20:59;99179.75;;;0.91;47.11
6532;BME280;3299;42.004;24.868;2023-02-12T00:23:25;99106.63;;;0.52;47.75
6532;BME280;3299;42.004;24.868;2023-02-12T00:25:51;99178.63;;;1.06;47.68
6532;BME280;3299;42.004;24.868;2023-02-12T00:28:16;99055.91;;;0.42;47.77
6532;BME280;3299;42.004;24.868;2023-02-12T00:30:42;99102.72;;;0.79;48.23
6532;BME280;3299;42.004;24.868;2023-02-12T00:33:07;99105.00;;;0.92;47.12
6532;BME280;3299;42.004;24.868;2023-02-12T00:35:33;99166.44;;;1.21;46.50
6532;BME280;3299;42.004;24.868;2023-02-12T00:37:59;99101.69;;;0.89;46.88
6532;BME280;3299;42.004;24.868;2023-02-12T00:40:25;99082.25;;;0.83;46.24
6532;BME280;3299;42.004;24.868;2023-02-12T00:42:51;99144.09;;;1.34;44.36
6532;BME280;3299;42.004;24.868;2023-02-12T00:45:17;99127.03;;;1.37;43.82
6532;BME280;3299;42.004;24.868;2023-02-12T00:47:42;99118.41;;;1.43;43.43
6532;BME280;3299;42.004;24.868;2023-02-12T00:50:08;99067.72;;;1.29;43.52
6532;BME280;3299;42.004;24.868;2023-02-12T00:52:34;99107.00;;;1.60;42.09
6532;BME280;3299;42.004;24.868;2023-02-12T00:54:59;99125.22;;;1.80;41.97
6532;BME280;3299;42.004;24.868;2023-02-12T00:57:25;99124.56;;;1.72;43.01
6532;BME280;3299;42.004;24.868;2023-02-12T00:59:50;99108.97;;;1.48;43.84
6532;BME280;3299;42.004;24.868;2023-02-12T01:02:16;99098.09;;;1.40;44.77
6532;BME280;3299;42.004;24.868;2023-02-12T01:04:42;99094.41;;;1.53;44.27
6532;BME280;3299;42.004;24.868;2023-02-12T01:07:08;99050.69;;;1.31;43.48
6532;BME280;3299;42.004;24.868;2023-02-12T01:09:35;99078.97;;;1.59;43.38
6532;BME280;3299;42.004;24.868;2023-02-12T01:12:01;99058.91;;;1.44;43.75
6532;BME280;3299;42.004;24.868;2023-02-12T01:14:27;99107.50;;;1.74;44.34
6532;BME280;3299;42.004;24.868;2023-02-12T01:16:53;99102.56;;;1.67;45.03
6532;BME280;3299;42.004;24.868;2023-02-12T01:19:18;99048.78;;;1.41;44.16
6532;BME280;3299;42.004;24.868;2023-02-12T01:21:43;99094.25;;;1.60;44.33
6532;BME280;3299;42.004;24.868;2023-02-12T01:24:09;99091.56;;;1.66;44.13
6532;BME280;3299;42.004;24.868;2023-02-12T01:26:34;99043.69;;;1.41;44.20
6532;BME280;3299;42.004;24.868;2023-02-12T01:29:04;99066.56;;;1.42;44.67
6532;BME280;3299;42.004;24.868;2023-02-12T01:31:35;99098.38;;;1.64;44.72
6532;BME280;3299;42.004;24.868;2023-02-12T01:34:02;99092.41;;;1.65;44.86
6532;BME280;3299;42.004;24.868;2023-02-12T01:36:29;99079.09;;;1.54;44.75
6532;BME280;3299;42.004;24.868;2023-02-12T01:38:55;99025.91;;;1.36;44.85
6532;BME280;3299;42.004;24.868;2023-02-12T01:41:25;99091.56;;;1.66;45.09
6532;BME280;3299;42.004;24.868;2023-02-12T01:46:29;99038.09;;;1.25;45.27
6532;BME280;3299;42.004;24.868;2023-02-12T01:48:55;99031.50;;;1.15;45.43
6532;BME280;3299;42.004;24.868;2023-02-12T01:51:21;99039.81;;;1.23;45.35
6532;BME280;3299;42.004;24.868;2023-02-12T01:53:53;99058.91;;;1.42;45.41
6532;BME280;3299;42.004;24.868;2023-02-12T01:56:23;99012.16;;;1.07;46.25
6532;BME280;3299;42.004;24.868;2023-02-12T01:58:50;99011.31;;;1.06;46.51
6532;BME280;3299;42.004;24.868;2023-02-12T02:01:25;98999.66;;;0.96;47.12
6532;BME280;3299;42.004;24.868;2023-02-12T02:03:56;99035.72;;;1.16;47.27
6532;BME280;3299;42.004;24.868;2023-02-12T02:06:27;99046.72;;;1.18;47.97
6532;BME280;3299;42.004;24.868;2023-02-12T02:08:55;99051.69;;;1.24;48.38
6532;BME280;3299;42.004;24.868;2023-02-12T02:11:21;98989.59;;;0.90;48.30
6532;BME280;3299;42.004;24.868;2023-02-12T02:14:05;99040.94;;;1.10;49.45
6532;BME280;3299;42.004;24.868;2023-02-12T02:16:58;99062.09;;;1.14;48.95
6532;BME280;3299;42.004;24.868;2023-02-12T02:22:14;98994.13;;;0.75;48.26
6532;BME280;3299;42.004;24.868;2023-02-12T02:27:21;99043.88;;;0.92;47.87
6532;BME280;3299;42.004;24.868;2023-02-12T02:33:13;99061.34;;;0.68;48.33
6532;BME280;3299;42.004;24.868;2023-02-12T02:36:14;99078.28;;;0.69;48.05
6532;BME280;3299;42.004;24.868;2023-02-12T02:39:05;99071.38;;;0.75;47.90
6532;BME280;3299;42.004;24.868;2023-02-12T02:44:38;99019.38;;;0.44;48.13
6532;BME280;3299;42.004;24.868;2023-02-12T02:47:08;99079.91;;;0.74;48.24
6532;BME280;3299;42.004;24.868;2023-02-12T02:49:42;99082.31;;;0.80;48.39
6532;BME280;3299;42.004;24.868;2023-02-12T02:52:15;99084.91;;;0.77;48.04
6532;BME280;3299;42.004;24.868;2023-02-12T02:54:46;99021.09;;;0.42;48.06
6532;BME280;3299;42.004;24.868;2023-02-12T02:57:23;99078.22;;;0.73;48.29
6532;BME280;3299;42.004;24.868;2023-02-12T03:00:14;99077.50;;;0.67;48.58
6532;BME280;3299;42.004;24.868;2023-02-12T03:02:48;98971.97;;;-0.07;48.71
6532;BME280;3299;42.004;24.868;2023-02-12T03:05:28;99024.84;;;0.23;48.77
6532;BME280;3299;42.004;24.868;2023-02-12T03:08:02;98974.56;;;-0.10;49.13
6532;BME280;3299;42.004;24.868;2023-02-12T03:10:34;99035.72;;;0.31;48.92
6532;BME280;3299;42.004;24.868;2023-02-12T03:15:39;99097.50;;;0.39;49.59
6532;BME280;3299;42.004;24.868;2023-02-12T03:18:12;98981.63;;;-0.27;49.88
6532;BME280;3299;42.004;24.868;2023-02-12T03:20:44;99022.03;;;-0.08;49.80
6532;BME280;3299;42.004;24.868;2023-02-12T03:23:23;99038.00;;;-0.01;49.79
6532;BME280;3299;42.004;24.868;2023-02-12T03:34:03;99087.13;;;0.50;49.77
6532;BME280;3299;42.004;24.868;2023-02-12T03:39:06;99083.91;;;0.42;50.06
6532;BME280;3299;42.004;24.868;2023-02-12T03:41:41;99032.69;;;0.11;50.10
6532;BME280;3299;42.004;24.868;2023-02-12T03:47:04;99091.34;;;0.51;49.76
6532;BME280;3299;42.004;24.868;2023-02-12T03:49:37;99013.03;;;0.19;49.75
6532;BME280;3299;42.004;24.868;2023-02-12T03:52:07;99086.38;;;0.45;49.95
6532;BME280;3299;42.004;24.868;2023-02-12T03:54:33;99079.94;;;0.24;50.52
6532;BME280;3299;42.004;24.868;2023-02-12T03:57:02;99081.69;;;0.24;50.57
6532;BME280;3299;42.004;24.868;2023-02-12T03:59:29;99091.69;;;0.33;50.71
6532;BME280;3299;42.004;24.868;2023-02-12T04:01:57;99053.16;;;0.04;50.73
6532;BME280;3299;42.004;24.868;2023-02-12T04:04:24;99040.66;;;-0.10;50.99
6532;BME280;3299;42.004;24.868;2023-02-12T04:06:51;99026.34;;;-0.13;51.16
6532;BME280;3299;42.004;24.868;2023-02-12T04:09:18;99048.47;;;-0.20;51.28
6532;BME280;3299;42.004;24.868;2023-02-12T04:20:14;99095.13;;;0.30;50.93
6532;BME280;3299;42.004;24.868;2023-02-12T04:28:48;99074.28;;;0.10;51.74
6532;BME280;3299;42.004;24.868;2023-02-12T04:37:00;99099.50;;;0.22;52.03
6532;BME280;3299;42.004;24.868;2023-02-12T04:39:30;99033.97;;;-0.13;51.68
6532;BME280;3299;42.004;24.868;2023-02-12T04:42:00;99062.13;;;0.24;51.12
6532;BME280;3299;42.004;24.868;2023-02-12T04:44:29;99072.31;;;0.24;51.44
6532;BME280;3299;42.004;24.868;2023-02-12T04:46:55;99091.53;;;0.42;51.09
6532;BME280;3299;42.004;24.868;2023-02-12T04:49:21;99064.88;;;0.15;51.47
6532;BME280;3299;42.004;24.868;2023-02-12T04:51:48;99089.91;;;0.36;51.78
6532;BME280;3299;42.004;24.868;2023-02-12T04:54:15;99045.44;;;0.10;51.37
6532;BME280;3299;42.004;24.868;2023-02-12T04:56:41;99053.78;;;0.18;51.15
6532;BME280;3299;42.004;24.868;2023-02-12T04:59:07;99029.19;;;0.17;50.87
6532;BME280;3299;42.004;24.868;2023-02-12T05:01:34;99085.25;;;0.59;50.43
6532;BME280;3299;42.004;24.868;2023-02-12T05:04:01;99016.63;;;0.09;50.71
6532;BME280;3299;42.004;24.868;2023-02-12T05:06:26;99038.19;;;0.36;50.77
6532;BME280;3299;42.004;24.868;2023-02-12T05:08:52;99079.34;;;0.59;50.86
6532;BME280;3299;42.004;24.868;2023-02-12T05:11:18;98997.50;;;-0.11;51.22
6532;BME280;3299;42.004;24.868;2023-02-12T05:13:47;99093.94;;;0.49;51.12
6532;BME280;3299;42.004;24.868;2023-02-12T05:16:13;99047.88;;;0.16;51.39
6532;BME280;3299;42.004;24.868;2023-02-12T05:18:38;99109.16;;;0.52;51.68
6532;BME280;3299;42.004;24.868;2023-02-12T05:21:04;99010.03;;;-0.01;51.27
6532;BME280;3299;42.004;24.868;2023-02-12T05:23:31;99061.34;;;0.21;51.29
6532;BME280;3299;42.004;24.868;2023-02-12T05:25:58;99124.91;;;0.72;51.52
6532;BME280;3299;42.004;24.868;2023-02-12T05:28:24;99109.69;;;0.69;51.09
6532;BME280;3299;42.004;24.868;2023-02-12T05:30:50;99114.78;;;0.71;51.22
6532;BME280;3299;42.004;24.868;2023-02-12T05:33:15;99120.63;;;0.74;51.48
6532;BME280;3299;42.004;24.868;2023-02-12T05:35:41;99131.53;;;0.81;51.47
6532;BME280;3299;42.004;24.868;2023-02-12T05:38:06;99086.03;;;0.64;51.65
6532;BME280;3299;42.004;24.868;2023-02-12T05:40:31;99090.00;;;0.77;51.56
6532;BME280;3299;42.004;24.868;2023-02-12T05:42:57;99087.41;;;0.82;51.37
6532;BME280;3299;42.004;24.868;2023-02-12T05:45:22;99123.38;;;1.09;51.44
6532;BME280;3299;42.004;24.868;2023-02-12T05:47:52;99157.50;;;1.43;50.38
6532;BME280;3299;42.004;24.868;2023-02-12T05:50:18;99088.56;;;1.08;50.19
6532;BME280;3299;42.004;24.868;2023-02-12T05:52:43;99087.75;;;1.06;50.31
6532;BME280;3299;42.004;24.868;2023-02-12T05:55:09;99084.28;;;1.09;50.35
6532;BME280;3299;42.004;24.868;2023-02-12T05:57:34;99155.59;;;1.53;50.77
6532;BME280;3299;42.004;24.868;2023-02-12T05:59:59;99097.56;;;1.24;51.54
6532;BME280;3299;42.004;24.868;2023-02-12T06:02:25;99152.94;;;1.57;51.58
6532;BME280;3299;42.004;24.868;2023-02-12T06:04:50;99074.66;;;1.23;52.21
6532;BME280;3299;42.004;24.868;2023-02-12T06:07:16;99154.44;;;1.67;52.34
6532;BME280;3299;42.004;24.868;2023-02-12T06:09:41;99153.47;;;1.71;51.99
6532;BME280;3299;42.004;24.868;2023-02-12T06:12:06;99157.38;;;1.87;51.06
6532;BME280;3299;42.004;24.868;2023-02-12T06:14:32;99169.91;;;1.98;51.42
6532;BME280;3299;42.004;24.868;2023-02-12T06:16:57;99178.06;;;2.13;50.19
6532;BME280;3299;42.004;24.868;2023-02-12T06:19:22;99157.25;;;1.93;50.30
6532;BME280;3299;42.004;24.868;2023-02-12T06:21:48;99092.47;;;1.62;50.62
6532;BME280;3299;42.004;24.868;2023-02-12T06:24:15;99099.72;;;1.80;50.75
6532;BME280;3299;42.004;24.868;2023-02-12T06:26:41;99158.25;;;2.24;50.97
6532;BME280;3299;42.004;24.868;2023-02-12T06:29:07;99152.16;;;2.28;51.16
6532;BME280;3299;42.004;24.868;2023-02-12T06:31:33;99161.34;;;2.35;51.68
6532;BME280;3299;42.004;24.868;2023-02-12T06:34:02;99173.47;;;2.62;53.49
6532;BME280;3299;42.004;24.868;2023-02-12T06:36:27;99108.94;;;2.56;52.20
6532;BME280;3299;42.004;24.868;2023-02-12T06:38:53;99109.44;;;2.68;52.35
6532;BME280;3299;42.004;24.868;2023-02-12T06:41:19;99165.38;;;3.11;52.57
6532;BME280;3299;42.004;24.868;2023-02-12T06:43:45;99100.66;;;2.78;52.14
6532;BME280;3299;42.004;24.868;2023-02-12T06:46:11;99129.28;;;2.91;50.46
6532;BME280;3299;42.004;24.868;2023-02-12T06:48:36;99166.72;;;3.24;51.13
6532;BME280;3299;42.004;24.868;2023-02-12T06:51:08;99167.69;;;3.49;52.53
6532;BME280;3299;42.004;24.868;2023-02-12T06:53:34;99131.13;;;3.45;52.40
6532;BME280;3299;42.004;24.868;2023-02-12T06:56:01;99191.22;;;3.90;52.09
6532;BME280;3299;42.004;24.868;2023-02-12T06:58:27;99169.97;;;3.88;50.98
6532;BME280;3299;42.004;24.868;2023-02-12T07:00:52;99183.13;;;4.04;51.17
6532;BME280;3299;42.004;24.868;2023-02-12T07:03:18;99182.94;;;4.10;51.17
6532;BME280;3299;42.004;24.868;2023-02-12T07:05:43;99173.75;;;4.04;50.30
6532;BME280;3299;42.004;24.868;2023-02-12T07:08:08;99087.78;;;3.70;49.71
6532;BME280;3299;42.004;24.868;2023-02-12T07:10:34;99184.94;;;4.28;50.27
6532;BME280;3299;42.004;24.868;2023-02-12T07:12:59;99142.91;;;4.07;51.16
6532;BME280;3299;42.004;24.868;2023-02-12T07:15:25;99150.44;;;4.39;50.54
6532;BME280;3299;42.004;24.868;2023-02-12T07:17:50;99176.69;;;4.72;50.39
6532;BME280;3299;42.004;24.868;2023-02-12T07:20:15;99089.69;;;4.43;49.55
6532;BME280;3299;42.004;24.868;2023-02-12T07:22:41;99135.38;;;4.79;49.49
6532;BME280;3299;42.004;24.868;2023-02-12T07:25:06;99148.41;;;4.98;49.14
6532;BME280;3299;42.004;24.868;2023-02-12T07:27:36;99187.44;;;5.30;48.85
6532;BME280;3299;42.004;24.868;2023-02-12T07:30:03;99192.28;;;5.39;48.20
6532;BME280;3299;42.004;24.868;2023-02-12T07:32:31;99128.16;;;5.15;47.88
6532;BME280;3299;42.004;24.868;2023-02-12T07:34:56;99187.59;;;5.50;48.13
6532;BME280;3299;42.004;24.868;2023-02-12T07:37:22;99118.53;;;5.21;47.47
6532;BME280;3299;42.004;24.868;2023-02-12T07:39:48;99172.13;;;5.52;47.26
6532;BME280;3299;42.004;24.868;2023-02-12T07:42:13;99124.03;;;5.34;47.36
6532;BME280;3299;42.004;24.868;2023-02-12T07:44:39;99180.75;;;5.72;46.82
6532;BME280;3299;42.004;24.868;2023-02-12T07:47:04;99170.69;;;5.68;46.86
6532;BME280;3299;42.004;24.868;2023-02-12T07:49:30;99115.84;;;5.47;47.01
6532;BME280;3299;42.004;24.868;2023-02-12T07:51:56;99084.94;;;5.27;46.63
6532;BME280;3299;42.004;24.868;2023-02-12T07:54:21;99111.66;;;5.45;46.14
6532;BME280;3299;42.004;24.868;2023-02-12T07:56:47;99170.19;;;5.81;46.29
6532;BME280;3299;42.004;24.868;2023-02-12T07:59:14;99129.16;;;5.57;46.58
6532;BME280;3299;42.004;24.868;2023-02-12T08:01:50;99187.81;;;5.90;46.28
6532;BME280;3299;42.004;24.868;2023-02-12T08:04:24;99151.81;;;5.69;46.14
6532;BME280;3299;42.004;24.868;2023-02-12T08:06:52;99141.63;;;5.67;45.77
6532;BME280;3299;42.004;24.868;2023-02-12T08:09:21;99148.19;;;5.74;45.77
6532;BME280;3299;42.004;24.868;2023-02-12T08:11:47;99137.13;;;5.72;45.18
6532;BME280;3299;42.004;24.868;2023-02-12T08:14:15;99156.47;;;5.82;44.79
6532;BME280;3299;42.004;24.868;2023-02-12T08:16:42;99164.69;;;5.90;45.18
6532;BME280;3299;42.004;24.868;2023-02-12T08:19:08;99223.59;;;6.18;45.43
6532;BME280;3299;42.004;24.868;2023-02-12T08:21:34;99159.69;;;5.87;45.37
6532;BME280;3299;42.004;24.868;2023-02-12T08:24:00;99160.38;;;5.92;45.11
6532;BME280;3299;42.004;24.868;2023-02-12T08:26:31;99164.13;;;6.05;44.54
6532;BME280;3299;42.004;24.868;2023-02-12T08:28:59;99180.06;;;6.13;44.48
6532;BME280;3299;42.004;24.868;2023-02-12T08:31:28;99175.72;;;6.15;44.45
6532;BME280;3299;42.004;24.868;2023-02-12T08:33:54;99174.50;;;6.25;44.16
6532;BME280;3299;42.004;24.868;2023-02-12T08:36:25;99223.06;;;6.53;44.04
6532;BME280;3299;42.004;24.868;2023-02-12T08:38:51;99228.06;;;6.56;43.86
6532;BME280;3299;42.004;24.868;2023-02-12T08:41:19;99219.66;;;6.52;43.94
6532;BME280;3299;42.004;24.868;2023-02-12T08:43:45;99234.72;;;6.61;44.17
6532;BME280;3299;42.004;24.868;2023-02-12T08:46:13;99243.09;;;6.66;44.25
6532;BME280;3299;42.004;24.868;2023-02-12T08:48:39;99198.81;;;6.38;44.34
6532;BME280;3299;42.004;24.868;2023-02-12T08:51:11;99194.56;;;6.37;44.18
6532;BME280;3299;42.004;24.868;2023-02-12T08:53:38;99232.31;;;6.57;44.20
6532;BME280;3299;42.004;24.868;2023-02-12T08:56:05;99188.63;;;6.35;44.56
6532;BME280;3299;42.004;24.868;2023-02-12T08:58:32;99250.56;;;6.72;44.78
6532;BME280;3299;42.004;24.868;2023-02-12T09:00:57;99272.31;;;6.85;44.69
6532;BME280;3299;42.004;24.868;2023-02-12T09:03:23;99260.47;;;6.81;44.79
6532;BME280;3299;42.004;24.868;2023-02-12T09:05:49;99225.50;;;6.56;44.73
6532;BME280;3299;42.004;24.868;2023-02-12T09:08:14;99278.13;;;6.90;44.92
6532;BME280;3299;42.004;24.868;2023-02-12T09:10:44;99226.13;;;6.62;44.96
6532;BME280;3299;42.004;24.868;2023-02-12T09:13:11;99286.00;;;6.86;45.33
6532;BME280;3299;42.004;24.868;2023-02-12T09:15:38;99247.63;;;6.60;45.67
6532;BME280;3299;42.004;24.868;2023-02-12T09:18:04;99244.22;;;6.59;45.85
6532;BME280;3299;42.004;24.868;2023-02-12T09:20:30;99248.34;;;6.63;44.67
6532;BME280;3299;42.004;24.868;2023-02-12T09:22:59;99237.97;;;6.66;45.01
6532;BME280;3299;42.004;24.868;2023-02-12T09:25:25;99291.97;;;7.08;44.87
6532;BME280;3299;42.004;24.868;2023-02-12T09:27:50;99285.09;;;7.08;45.53
6532;BME280;3299;42.004;24.868;2023-02-12T09:30:16;99281.44;;;7.14;46.12
6532;BME280;3299;42.004;24.868;2023-02-12T09:32:41;99292.88;;;7.27;46.07
6532;BME280;3299;42.004;24.868;2023-02-12T09:35:07;99294.38;;;7.32;46.43
6532;BME280;3299;42.004;24.868;2023-02-12T09:37:33;99202.88;;;6.85;46.37
6532;BME280;3299;42.004;24.868;2023-02-12T09:39:58;99299.03;;;7.44;46.30
6532;BME280;3299;42.004;24.868;2023-02-12T09:42:47;99307.34;;;7.51;46.36
6532;BME280;3299;42.004;24.868;2023-02-12T09:45:20;99210.78;;;7.01;46.06
6532;BME280;3299;42.004;24.868;2023-02-12T09:48:01;99302.63;;;7.60;46.14
6532;BME280;3299;42.004;24.868;2023-02-12T09:53:03;99306.94;;;7.80;45.89
6532;BME280;3299;42.004;24.868;2023-02-12T09:55:32;99248.72;;;7.56;46.22
6532;BME280;3299;42.004;24.868;2023-02-12T09:58:01;99285.53;;;7.78;46.57
6532;BME280;3299;42.004;24.868;2023-02-12T10:00:29;99293.59;;;7.70;47.00
6532;BME280;3299;42.004;24.868;2023-02-12T10:03:00;99298.63;;;7.73;47.40
6532;BME280;3299;42.004;24.868;2023-02-12T10:05:30;99299.28;;;7.78;47.75
6532;BME280;3299;42.004;24.868;2023-02-12T10:08:27;99293.91;;;7.83;47.83
6532;BME280;3299;42.004;24.868;2023-02-12T10:11:17;99285.97;;;7.87;47.64
6532;BME280;3299;42.004;24.868;2023-02-12T10:14:13;99276.63;;;7.85;47.48
6532;BME280;3299;42.004;24.868;2023-02-12T10:25:35;99301.84;;;8.17;46.37
6532;BME280;3299;42.004;24.868;2023-02-12T10:28:16;99242.88;;;7.91;46.16
6532;BME280;3299;42.004;24.868;2023-02-12T10:33:15;99280.97;;;8.41;46.10
6532;BME280;3299;42.004;24.868;2023-02-12T10:35:47;99231.13;;;8.22;45.75
6532;BME280;3299;42.004;24.868;2023-02-12T10:38:18;99277.19;;;8.48;45.60
6532;BME280;3299;42.004;24.868;2023-02-12T10:40:45;99283.13;;;8.50;45.95
6532;BME280;3299;42.004;24.868;2023-02-12T10:43:11;99285.75;;;8.49;45.60
6532;BME280;3299;42.004;24.868;2023-02-12T10:45:39;99286.59;;;8.49;45.86
6532;BME280;3299;42.004;24.868;2023-02-12T10:48:09;99291.38;;;8.75;46.04
6532;BME280;3299;42.004;24.868;2023-02-12T10:53:43;99296.16;;;9.01;45.42
6532;BME280;3299;42.004;24.868;2023-02-12T10:56:20;99248.34;;;8.76;45.63
6532;BME280;3299;42.004;24.868;2023-02-12T11:01:21;99260.91;;;8.83;45.32
6532;BME280;3299;42.004;24.868;2023-02-12T11:03:50;99292.22;;;9.11;45.26
6532;BME280;3299;42.004;24.868;2023-02-12T11:06:21;99294.63;;;9.14;45.30
6532;BME280;3299;42.004;24.868;2023-02-12T11:08:48;99308.16;;;9.19;44.99
6532;BME280;3299;42.004;24.868;2023-02-12T11:11:22;99241.38;;;8.78;45.27
6532;BME280;3299;42.004;24.868;2023-02-12T11:13:57;99295.22;;;9.02;45.65
6532;BME280;3299;42.004;24.868;2023-02-12T11:16:35;99293.69;;;8.98;45.55
6532;BME280;3299;42.004;24.868;2023-02-12T11:19:06;99320.63;;;9.11;45.57
6532;BME280;3299;42.004;24.868;2023-02-12T11:21:34;99320.69;;;9.10;45.72
6532;BME280;3299;42.004;24.868;2023-02-12T11:24:28;99323.50;;;9.05;45.74
6532;BME280;3299;42.004;24.868;2023-02-12T11:29:42;99262.78;;;8.44;46.82
6532;BME280;3299;42.004;24.868;2023-02-12T11:32:14;99250.38;;;8.34;46.79
6532;BME280;3299;42.004;24.868;2023-02-12T11:34:40;99248.34;;;8.40;46.82
6532;BME280;3299;42.004;24.868;2023-02-12T11:37:21;99253.31;;;8.45;46.08
6532;BME280;3299;42.004;24.868;2023-02-12T11:39:47;99305.47;;;8.68;46.23
6532;BME280;3299;42.004;24.868;2023-02-12T11:42:16;99315.31;;;8.79;46.47
6532;BME280;3299;42.004;24.868;2023-02-12T11:44:48;99302.31;;;8.80;46.32
6532;BME280;3299;42.004;24.868;2023-02-12T11:47:23;99284.41;;;8.77;46.74
6532;BME280;3299;42.004;24.868;2023-02-12T11:49:58;99246.44;;;8.62;46.60
6532;BME280;3299;42.004;24.868;2023-02-12T11:52:30;99249.28;;;8.75;46.22
6532;BME280;3299;42.004;24.868;2023-02-12T11:55:03;99298.78;;;9.00;46.15
6532;BME280;3299;42.004;24.868;2023-02-12T11:57:36;99305.44;;;9.05;46.40
6532;BME280;3299;42.004;24.868;2023-02-12T12:00:13;99306.84;;;9.11;45.64
6532;BME280;3299;42.004;24.868;2023-02-12T12:02:44;99253.16;;;8.83;45.88
6532;BME280;3299;42.004;24.868;2023-02-12T12:05:18;99306.94;;;9.26;45.95
6532;BME280;3299;42.004;24.868;2023-02-12T12:07:55;99231.16;;;8.93;45.55
6532;BME280;3299;42.004;24.868;2023-02-12T12:10:43;99295.69;;;9.44;45.31
6532;BME280;3299;42.004;24.868;2023-02-12T12:13:18;99247.56;;;9.26;45.15
6532;BME280;3299;42.004;24.868;2023-02-12T12:15:50;99281.41;;;9.54;44.80
6532;BME280;3299;42.004;24.868;2023-02-12T12:19:05;99306.63;;;9.66;44.89
6532;BME280;3299;42.004;24.868;2023-02-12T12:26:52;99304.84;;;9.51;44.65
6532;BME280;3299;42.004;24.868;2023-02-12T12:29:46;99263.97;;;9.25;44.83
6532;BME280;3299;42.004;24.868;2023-02-12T12:32:15;99321.16;;;9.52;44.78
6532;BME280;3299;42.004;24.868;2023-02-12T12:34:42;99299.69;;;9.34;44.60
6532;BME280;3299;42.004;24.868;2023-02-12T12:37:16;99339.94;;;9.55;44.57
6532;BME280;3299;42.004;24.868;2023-02-12T12:42:49;99342.66;;;9.35;45.22
6532;BME280;3299;42.004;24.868;2023-02-12T13:07:33;99369.38;;;9.17;45.02
6532;BME280;3299;42.004;24.868;2023-02-12T13:24:13;99388.03;;;9.05;44.68
6532;BME280;3299;42.004;24.868;2023-02-12T13:29:21;99340.56;;;8.72;45.19
6532;BME280;3299;42.004;24.868;2023-02-12T13:31:54;99367.16;;;8.91;45.17
6532;BME280;3299;42.004;24.868;2023-02-12T13:34:23;99376.28;;;8.98;45.04
6532;BME280;3299;42.004;24.868;2023-02-12T13:36:54;99387.81;;;8.91;45.42
6532;BME280;3299;42.004;24.868;2023-02-12T13:39:33;99411.16;;;9.07;43.92
6532;BME280;3299;42.004;24.868;2023-02-12T13:49:57;99423.78;;;9.13;43.92
6532;BME280;3299;42.004;24.868;2023-02-12T13:52:32;99407.78;;;9.06;44.30
6532;BME280;3299;42.004;24.868;2023-02-12T13:57:34;99426.31;;;9.14;44.23
6532;BME280;3299;42.004;24.868;2023-02-12T13:59:59;99336.88;;;8.59;43.53
6532;BME280;3299;42.004;24.868;2023-02-12T14:02:45;99386.16;;;8.90;43.50
6532;BME280;3299;42.004;24.868;2023-02-12T14:05:25;99358.13;;;8.64;43.90
6532;BME280;3299;42.004;24.868;2023-02-12T14:07:57;99381.22;;;8.86;43.92
6532;BME280;3299;42.004;24.868;2023-02-12T14:10:38;99380.34;;;8.85;43.54
6532;BME280;3299;42.004;24.868;2023-02-12T14:13:17;99397.44;;;8.88;43.82
6532;BME280;3299;42.004;24.868;2023-02-12T14:15:47;99451.72;;;9.23;43.65
6532;BME280;3299;42.004;24.868;2023-02-12T14:18:34;99447.38;;;9.24;43.62
6532;BME280;3299;42.004;24.868;2023-02-12T14:23:38;99465.59;;;9.21;44.10
6532;BME280;3299;42.004;24.868;2023-02-12T14:26:19;99449.00;;;9.08;44.36
6532;BME280;3299;42.004;24.868;2023-02-12T14:28:53;99470.84;;;9.19;44.82
6532;BME280;3299;42.004;24.868;2023-02-12T14:34:35;99432.19;;;8.81;45.12
6532;BME280;3299;42.004;24.868;2023-02-12T14:36:43;99466.91;;;8.92;45.29
6532;BME280;3299;42.004;24.868;2023-02-12T14:41:45;99484.09;;;8.93;45.86
6532;BME280;3299;42.004;24.868;2023-02-12T14:54:26;99463.53;;;8.53;46.51
6532;BME280;3299;42.004;24.868;2023-02-12T14:56:52;99512.13;;;8.82;46.67
6532;BME280;3299;42.004;24.868;2023-02-12T14:59:22;99511.75;;;8.71;46.58
6532;BME280;3299;42.004;24.868;2023-02-12T15:01:49;99474.13;;;8.47;47.00
6532;BME280;3299;42.004;24.868;2023-02-12T15:04:30;99492.69;;;8.55;47.11
6532;BME280;3299;42.004;24.868;2023-02-12T15:07:09;99487.06;;;8.46;47.28
6532;BME280;3299;42.004;24.868;2023-02-12T15:12:30;99533.31;;;8.70;47.62
6532;BME280;3299;42.004;24.868;2023-02-12T15:15:22;99544.59;;;8.68;47.75
6532;BME280;3299;42.004;24.868;2023-02-12T15:18:02;99502.75;;;8.41;48.00
6532;BME280;3299;42.004;24.868;2023-02-12T15:21:19;99547.16;;;8.48;48.46
6532;BME280;3299;42.004;24.868;2023-02-12T15:23:47;99519.72;;;8.27;48.84
6532;BME280;3299;42.004;24.868;2023-02-12T15:26:23;99570.81;;;8.37;49.28
6532;BME280;3299;42.004;24.868;2023-02-12T15:28:52;99531.88;;;8.02;49.56
6532;BME280;3299;42.004;24.868;2023-02-12T15:31:25;99542.19;;;8.02;49.73
6532;BME280;3299;42.004;24.868;2023-02-12T15:33:52;99567.25;;;7.98;50.29
6532;BME280;3299;42.004;24.868;2023-02-12T15:36:22;99572.41;;;7.98;50.65
6532;BME280;3299;42.004;24.868;2023-02-12T15:38:57;99494.09;;;7.38;50.77
6532;BME280;3299;42.004;24.868;2023-02-12T15:43:58;99607.91;;;7.92;51.21
6532;BME280;3299;42.004;24.868;2023-02-12T15:46:24;99516.91;;;7.25;51.67
6532;BME280;3299;42.004;24.868;2023-02-12T15:48:49;99566.56;;;7.50;51.73
6532;BME280;3299;42.004;24.868;2023-02-12T15:51:28;99628.66;;;7.87;51.47
6532;BME280;3299;42.004;24.868;2023-02-12T15:53:55;99568.38;;;7.48;51.77
6532;BME280;3299;42.004;24.868;2023-02-12T15:56:23;99579.22;;;7.56;51.94
6532;BME280;3299;42.004;24.868;2023-02-12T15:58:53;99638.19;;;7.85;51.94
6532;BME280;3299;42.004;24.868;2023-02-12T16:01:24;99638.53;;;7.76;51.95
6532;BME280;3299;42.004;24.868;2023-02-12T16:03:53;99641.97;;;7.54;53.37
6532;BME280;3299;42.004;24.868;2023-02-12T16:06:21;99646.63;;;7.44;53.49
6532;BME280;3299;42.004;24.868;2023-02-12T16:08:52;99654.44;;;7.41;53.60
6532;BME280;3299;42.004;24.868;2023-02-12T16:11:21;99617.22;;;7.04;53.90